createdAt,value
2023-06-14T00:01:47.145Z,10.18
2023-06-14T00:04:17.852Z,10.32
2023-06-14T00:06:46.280Z,10.36
2023-06-14T00:09:14.355Z,10.31
2023-06-14T00:11:45.595Z,10.18
2023-06-14T00:14:13.469Z,10.20
2023-06-14T00:16:43.194Z,10.24
2023-06-14T00:19:11.361Z,10.31
2023-06-14T00:21:39.158Z,10.26
2023-06-14T00:24:06.878Z,10.29
2023-06-14T00:26:34.807Z,10.37
2023-06-14T00:29:02.832Z,10.41
2023-06-14T00:31:31.263Z,10.57
2023-06-14T00:33:58.553Z,10.60
2023-06-14T00:36:26.564Z,10.70
2023-06-14T00:38:54.778Z,10.84
2023-06-14T00:41:23.502Z,10.66
2023-06-14T00:43:52.261Z,10.57
2023-06-14T00:46:20.710Z,10.65
2023-06-14T00:48:48.817Z,10.58
2023-06-14T00:51:17.292Z,10.41
2023-06-14T00:53:48.082Z,10.44
2023-06-14T00:56:17.847Z,10.44
2023-06-14T00:58:45.619Z,10.21
2023-06-14T01:07:05.792Z,9.86
2023-06-14T01:09:42.147Z,9.89
2023-06-14T01:12:26.110Z,9.81
2023-06-14T01:14:53.764Z,10.03
2023-06-14T01:17:22.667Z,10.02
2023-06-14T01:19:54.459Z,10.07
2023-06-14T01:22:22.139Z,10.06
2023-06-14T01:24:50.417Z,9.95
2023-06-14T01:27:19.973Z,9.89
2023-06-14T01:29:49.222Z,9.87
2023-06-14T01:32:17.315Z,10.08
2023-06-14T01:34:45.295Z,10.24
2023-06-14T01:37:12.892Z,10.41
2023-06-14T01:39:40.871Z,10.69
2023-06-14T01:42:08.625Z,10.89
2023-06-14T01:44:36.009Z,10.97
2023-06-14T01:47:03.286Z,10.99
2023-06-14T01:49:31.303Z,11.06
2023-06-14T01:51:59.272Z,11.14
2023-06-14T01:54:26.705Z,11.19
2023-06-14T01:56:54.626Z,11.23
2023-06-14T01:59:22.096Z,11.25
2023-06-14T02:01:49.890Z,11.32
2023-06-14T02:04:17.556Z,11.43
2023-06-14T02:06:45.016Z,11.55
2023-06-14T02:09:12.655Z,11.68
2023-06-14T02:11:40.508Z,11.74
2023-06-14T02:14:08.160Z,11.73
2023-06-14T02:16:37.256Z,11.81
2023-06-14T02:19:04.993Z,11.77
2023-06-14T02:21:32.406Z,11.82
2023-06-14T02:23:59.941Z,11.85
2023-06-14T02:26:29.926Z,11.87
2023-06-14T02:28:57.265Z,11.96
2023-06-14T02:31:25.511Z,11.87
2023-06-14T02:33:53.208Z,11.91
2023-06-14T02:36:21.554Z,11.84
2023-06-14T02:38:49.224Z,11.95
2023-06-14T02:41:17.002Z,11.84
2023-06-14T02:43:44.759Z,11.75
2023-06-14T02:46:12.484Z,11.68
2023-06-14T02:48:39.993Z,11.64
2023-06-14T02:51:10.423Z,11.51
2023-06-14T02:53:38.684Z,11.46
2023-06-14T02:56:06.858Z,11.39
2023-06-14T02:58:34.826Z,11.35
2023-06-14T03:01:07.172Z,11.44
2023-06-14T03:03:35.080Z,11.56
2023-06-14T03:06:05.392Z,11.68
2023-06-14T03:08:39.428Z,11.80
2023-06-14T03:11:14.811Z,11.79
2023-06-14T03:13:42.601Z,11.75
2023-06-14T03:16:11.941Z,11.73
2023-06-14T03:18:42.162Z,11.62
2023-06-14T03:21:11.928Z,11.50
2023-06-14T03:23:44.010Z,11.45
2023-06-14T03:26:15.182Z,11.44
2023-06-14T03:28:42.956Z,11.36
2023-06-14T03:31:11.022Z,11.40
2023-06-14T03:33:39.938Z,11.44
2023-06-14T03:36:08.030Z,11.44
2023-06-14T03:38:35.964Z,11.41
2023-06-14T03:41:05.337Z,11.32
2023-06-14T03:43:34.580Z,11.36
2023-06-14T03:46:02.966Z,11.37
2023-06-14T03:48:32.669Z,11.37
2023-06-14T03:51:01.733Z,11.48
2023-06-14T03:53:32.006Z,11.43
2023-06-14T03:56:00.914Z,11.35
2023-06-14T03:58:36.443Z,11.37
2023-06-14T04:01:04.413Z,11.37
2023-06-14T04:03:32.599Z,11.37
2023-06-14T04:06:01.895Z,11.42
2023-06-14T04:08:29.505Z,11.50
2023-06-14T04:10:58.984Z,11.50
2023-06-14T04:13:26.406Z,11.56
2023-06-14T04:15:54.573Z,11.63
2023-06-14T04:18:27.888Z,11.48
2023-06-14T04:20:57.509Z,11.32
2023-06-14T04:23:24.991Z,11.24
2023-06-14T04:25:52.863Z,11.19
2023-06-14T04:28:20.621Z,11.24
2023-06-14T04:30:49.423Z,11.33
2023-06-14T04:33:19.601Z,11.51
2023-06-14T04:35:54.488Z,11.83
2023-06-14T04:38:26.553Z,12.19
2023-06-14T04:40:54.634Z,12.40
2023-06-14T04:43:27.156Z,12.57
2023-06-14T04:45:57.284Z,12.80
2023-06-14T04:48:26.348Z,12.87
2023-06-14T04:50:55.368Z,12.91
2023-06-14T04:53:24.134Z,13.02
2023-06-14T04:55:55.793Z,13.16
2023-06-14T04:58:25.064Z,13.14
2023-06-14T05:00:53.320Z,13.37
2023-06-14T05:03:22.028Z,13.67
2023-06-14T05:05:49.759Z,13.80
2023-06-14T05:08:17.920Z,14.07
2023-06-14T05:10:46.603Z,14.33
2023-06-14T05:13:14.282Z,14.52
2023-06-14T05:15:43.485Z,14.64
2023-06-14T05:18:11.117Z,14.65
2023-06-14T05:20:39.005Z,14.71
2023-06-14T05:23:06.701Z,14.88
2023-06-14T05:25:34.513Z,15.08
2023-06-14T05:28:02.459Z,15.35
2023-06-14T05:30:31.797Z,15.65
2023-06-14T05:32:59.185Z,16.04
2023-06-14T05:35:27.833Z,16.40
2023-06-14T05:37:55.499Z,16.38
2023-06-14T05:40:23.058Z,16.23
2023-06-14T05:42:50.716Z,16.05
2023-06-14T05:45:18.754Z,15.92
2023-06-14T05:50:45.553Z,15.97
2023-06-14T05:53:13.245Z,16.06
2023-06-14T05:55:41.768Z,16.22
2023-06-14T05:58:10.300Z,16.41
2023-06-14T06:00:38.076Z,16.56
2023-06-14T06:03:05.759Z,16.75
2023-06-14T06:05:33.478Z,16.66
2023-06-14T06:08:01.547Z,16.54
2023-06-14T06:10:28.767Z,16.35
2023-06-14T06:12:56.282Z,16.20
2023-06-14T06:15:24.275Z,15.93
2023-06-14T06:17:55.989Z,15.86
2023-06-14T06:20:29.441Z,15.87
2023-06-14T06:22:57.477Z,16.02
2023-06-14T06:25:26.792Z,16.06
2023-06-14T06:27:54.770Z,15.87
2023-06-14T06:30:22.220Z,15.71
2023-06-14T06:32:49.693Z,15.58
2023-06-14T06:35:18.094Z,15.26
2023-06-14T06:37:45.762Z,14.89
2023-06-14T06:40:13.833Z,14.63
2023-06-14T06:42:41.253Z,14.55
2023-06-14T06:45:12.904Z,14.47
2023-06-14T06:47:40.658Z,14.42
2023-06-14T06:50:09.332Z,14.31
2023-06-14T06:52:37.580Z,14.21
2023-06-14T06:55:05.659Z,14.31
2023-06-14T06:57:33.161Z,14.81
2023-06-14T07:00:01.147Z,15.55
2023-06-14T07:02:29.607Z,16.21
2023-06-14T07:04:57.231Z,16.55
2023-06-14T07:07:24.538Z,16.85
2023-06-14T07:09:52.163Z,17.26
2023-06-14T07:12:19.581Z,17.34
2023-06-14T07:14:47.286Z,17.73
2023-06-14T07:17:15.241Z,18.33
2023-06-14T07:19:42.542Z,19.11
2023-06-14T07:22:11.670Z,19.78
2023-06-14T07:24:41.278Z,20.42
2023-06-14T07:27:09.178Z,20.63
2023-06-14T07:29:36.991Z,20.63
2023-06-14T07:32:07.643Z,20.94
2023-06-14T07:34:35.572Z,21.21
2023-06-14T07:37:03.351Z,21.55
2023-06-14T07:39:31.157Z,21.55
2023-06-14T07:41:58.540Z,21.67
2023-06-14T07:44:26.626Z,21.73
2023-06-14T07:46:54.280Z,21.51
2023-06-14T07:49:22.016Z,20.99
2023-06-14T07:51:49.610Z,20.71
2023-06-14T07:54:17.829Z,20.44
2023-06-14T07:56:45.206Z,20.39
2023-06-14T07:59:12.832Z,20.33
2023-06-14T08:01:40.615Z,19.99
2023-06-14T08:04:08.041Z,19.32
2023-06-14T08:06:35.742Z,18.89
2023-06-14T08:09:03.227Z,18.70
2023-06-14T08:11:30.778Z,18.50
2023-06-14T08:14:01.279Z,18.43
2023-06-14T08:16:28.795Z,18.51
2023-06-14T08:18:56.846Z,18.54
2023-06-14T08:21:25.040Z,18.33
2023-06-14T08:23:54.420Z,17.90
2023-06-14T08:26:21.982Z,17.53
2023-06-14T08:28:49.334Z,17.44
2023-06-14T08:31:16.750Z,17.70
2023-06-14T08:33:44.354Z,18.02
2023-06-14T08:36:12.890Z,18.05
2023-06-14T08:38:41.042Z,18.03
2023-06-14T08:41:08.717Z,17.84
2023-06-14T08:43:36.128Z,17.71
2023-06-14T08:46:04.605Z,17.75
2023-06-14T08:48:35.437Z,17.67
2023-06-14T08:51:03.188Z,17.57
2023-06-14T08:53:36.661Z,17.31
2023-06-14T08:56:06.749Z,17.17
2023-06-14T08:58:34.978Z,17.09
2023-06-14T09:01:06.248Z,16.89
2023-06-14T09:03:34.098Z,16.74
2023-06-14T09:06:01.882Z,16.66
2023-06-14T09:08:31.278Z,16.58
2023-06-14T09:10:59.700Z,16.50
2023-06-14T09:13:30.700Z,16.52
2023-06-14T09:15:59.341Z,16.60
2023-06-14T09:18:39.909Z,16.65
2023-06-14T09:21:09.317Z,16.97
2023-06-14T09:23:43.071Z,17.47
2023-06-14T09:26:17.425Z,18.17
2023-06-14T09:28:45.904Z,18.66
2023-06-14T09:31:14.371Z,18.72
2023-06-14T09:33:51.534Z,18.44
2023-06-14T09:36:19.595Z,18.26
2023-06-14T09:39:01.456Z,18.27
2023-06-14T09:41:36.544Z,18.08
2023-06-14T09:44:08.829Z,17.88
2023-06-14T09:46:38.178Z,17.69
2023-06-14T09:49:06.964Z,17.54
2023-06-14T09:51:35.410Z,17.49
2023-06-14T09:54:05.498Z,17.54
2023-06-14T09:56:34.580Z,17.73
2023-06-14T09:59:08.044Z,17.85
2023-06-14T10:01:42.831Z,18.01
2023-06-14T10:04:12.195Z,18.17
2023-06-14T10:06:44.841Z,18.32
2023-06-14T10:09:12.783Z,18.72
2023-06-14T10:11:46.820Z,18.84
2023-06-14T10:14:16.971Z,18.92
2023-06-14T10:17:10.155Z,19.08
2023-06-14T10:19:44.108Z,18.99
2023-06-14T10:22:13.801Z,18.83
2023-06-14T10:24:45.305Z,18.69
2023-06-14T10:27:18.094Z,18.45
2023-06-14T10:29:55.036Z,18.43
2023-06-14T10:32:23.141Z,18.22
2023-06-14T10:34:58.105Z,18.03
2023-06-14T10:37:25.870Z,17.89
2023-06-14T10:39:54.287Z,17.73
2023-06-14T10:42:24.426Z,17.64
2023-06-14T10:45:06.142Z,17.57
2023-06-14T10:47:36.869Z,17.52
2023-06-14T10:50:06.560Z,17.36
2023-06-14T10:52:36.798Z,17.00
2023-06-14T10:55:23.976Z,16.75
2023-06-14T10:57:59.619Z,16.60
2023-06-14T11:00:29.291Z,16.58
2023-06-14T11:03:01.333Z,16.61
2023-06-14T11:05:31.992Z,16.51
2023-06-14T11:08:22.043Z,16.53
2023-06-14T11:10:49.494Z,16.65
2023-06-14T11:13:17.450Z,16.74
2023-06-14T11:15:48.221Z,16.72
2023-06-14T11:18:17.747Z,16.59
2023-06-14T11:20:47.078Z,16.61
2023-06-14T11:23:14.555Z,16.67
2023-06-14T11:25:41.781Z,16.69
2023-06-14T11:28:10.672Z,16.76
2023-06-14T11:30:38.798Z,16.67
2023-06-14T11:33:10.515Z,16.63
2023-06-14T11:35:39.416Z,16.54
2023-06-14T11:38:08.700Z,16.56
2023-06-14T11:40:36.279Z,16.53
2023-06-14T11:43:03.517Z,16.20
2023-06-14T11:45:31.665Z,15.91
2023-06-14T11:48:02.410Z,15.56
2023-06-14T11:50:31.242Z,15.29
2023-06-14T11:53:11.492Z,14.97
2023-06-14T11:55:40.198Z,14.86
2023-06-14T11:58:08.699Z,14.72
2023-06-14T12:00:37.738Z,14.50
2023-06-14T12:03:05.638Z,14.35
2023-06-14T12:05:35.314Z,14.40
2023-06-14T12:08:04.441Z,14.27
2023-06-14T12:10:31.889Z,14.19
2023-06-14T12:13:00.145Z,14.15
2023-06-14T12:15:31.407Z,14.18
2023-06-14T12:18:02.279Z,14.33
2023-06-14T12:20:32.802Z,14.34
2023-06-14T12:23:01.932Z,14.34
2023-06-14T12:25:34.459Z,14.35
2023-06-14T12:28:09.466Z,14.28
2023-06-14T12:30:37.648Z,14.21
2023-06-14T12:33:05.774Z,14.28
2023-06-14T12:35:33.552Z,14.27
2023-06-14T12:38:01.493Z,14.24
2023-06-14T12:40:29.526Z,14.16
2023-06-14T12:42:57.190Z,14.14
2023-06-14T12:45:25.077Z,14.09
2023-06-14T12:47:53.106Z,14.06
2023-06-14T12:50:24.615Z,14.13
2023-06-14T12:52:53.795Z,14.17
2023-06-14T12:55:21.827Z,14.27
2023-06-14T12:57:51.227Z,14.37
2023-06-14T13:00:19.380Z,14.50
2023-06-14T13:02:47.959Z,14.50
2023-06-14T13:05:15.837Z,14.34
2023-06-14T13:07:43.793Z,14.22
2023-06-14T13:10:11.931Z,14.10
2023-06-14T13:12:39.498Z,14.02
2023-06-14T13:15:08.902Z,13.96
2023-06-14T13:17:39.442Z,13.82
2023-06-14T13:20:08.036Z,13.70
2023-06-14T13:22:35.816Z,13.68
2023-06-14T13:28:33.737Z,13.60
2023-06-14T13:31:01.994Z,13.54
2023-06-14T13:33:29.579Z,13.61
2023-06-14T13:35:57.837Z,13.65
2023-06-14T13:38:25.620Z,13.70
2023-06-14T13:40:53.365Z,13.60
2023-06-14T13:43:20.761Z,13.51
2023-06-14T13:54:25.517Z,13.37
2023-06-14T13:56:53.181Z,13.35
2023-06-14T13:59:20.728Z,13.33
2023-06-14T14:01:49.487Z,13.27
2023-06-14T14:04:18.325Z,13.22
2023-06-14T14:06:49.268Z,13.12
2023-06-14T14:09:17.365Z,13.02
2023-06-14T14:11:45.032Z,12.88
2023-06-14T14:14:12.820Z,12.78
2023-06-14T14:16:40.906Z,12.71
2023-06-14T14:19:08.587Z,12.62
2023-06-14T14:21:37.934Z,12.53
2023-06-14T14:24:05.945Z,12.43
2023-06-14T14:26:33.380Z,12.30
2023-06-14T14:29:02.213Z,12.23
2023-06-14T14:31:29.776Z,12.13
2023-06-14T14:33:57.606Z,12.03
2023-06-14T14:36:24.871Z,11.97
2023-06-14T14:38:56.388Z,11.93
2023-06-14T14:41:26.212Z,11.80
2023-06-14T14:43:54.979Z,11.72
2023-06-14T14:46:26.864Z,11.60
2023-06-14T14:48:55.663Z,11.63
2023-06-14T14:51:23.102Z,11.55
2023-06-14T14:53:51.666Z,11.46
2023-06-14T14:56:20.229Z,11.37
2023-06-14T14:58:47.907Z,11.36
2023-06-14T15:01:17.207Z,11.42
2023-06-14T15:03:58.618Z,11.46
2023-06-14T15:06:27.492Z,11.56
2023-06-14T15:08:55.049Z,11.57
2023-06-14T15:11:22.699Z,11.66
2023-06-14T15:13:54.541Z,11.69
2023-06-14T15:16:22.375Z,11.76
2023-06-14T15:18:49.954Z,11.83
2023-06-14T15:21:22.085Z,11.81
2023-06-14T15:23:51.003Z,11.87
2023-06-14T15:26:18.379Z,11.82
2023-06-14T15:28:45.816Z,11.80
2023-06-14T15:31:13.686Z,11.83
2023-06-14T15:33:42.115Z,11.79
2023-06-14T15:36:11.666Z,11.77
2023-06-14T15:38:39.199Z,11.68
2023-06-14T15:41:07.714Z,11.66
2023-06-14T15:43:35.626Z,11.55
2023-06-14T15:46:02.914Z,11.50
2023-06-14T15:48:32.372Z,11.48
2023-06-14T15:51:05.762Z,11.38
2023-06-14T15:53:37.903Z,11.29
2023-06-14T15:56:05.985Z,11.32
2023-06-14T15:58:33.928Z,11.29
2023-06-14T16:01:01.634Z,11.21
2023-06-14T16:03:29.427Z,11.23
2023-06-14T16:05:57.735Z,11.19
2023-06-14T16:08:39.653Z,11.28
2023-06-14T16:11:09.038Z,11.36
2023-06-14T16:13:36.632Z,11.38
2023-06-14T16:16:04.692Z,11.36
2023-06-14T16:18:42.346Z,11.36
2023-06-14T16:21:11.868Z,11.38
2023-06-14T16:23:44.728Z,11.36
2023-06-14T16:26:13.616Z,11.33
2023-06-14T16:28:45.573Z,11.24
2023-06-14T16:31:17.234Z,11.09
2023-06-14T16:33:45.092Z,11.01
2023-06-14T16:36:13.637Z,10.92
2023-06-14T16:38:41.359Z,10.92
2023-06-14T16:41:09.035Z,10.91
2023-06-14T16:43:36.989Z,10.79
2023-06-14T16:46:04.487Z,10.80
2023-06-14T16:48:32.078Z,10.70
2023-06-14T16:50:59.480Z,10.64
2023-06-14T16:53:27.820Z,10.56
2023-06-14T16:55:55.674Z,10.55
2023-06-14T16:58:23.327Z,10.48
2023-06-14T17:00:51.807Z,10.45
2023-06-14T17:03:19.668Z,10.34
2023-06-14T17:05:59.716Z,10.23
2023-06-14T17:08:27.634Z,10.20
2023-06-14T17:10:56.148Z,10.12
2023-06-14T17:13:23.882Z,10.07
2023-06-14T17:15:51.358Z,10.01
2023-06-14T17:18:19.175Z,9.88
2023-06-14T17:20:47.179Z,9.79
2023-06-14T17:23:14.766Z,9.78
2023-06-14T17:25:42.194Z,9.69
2023-06-14T17:28:09.813Z,9.68
2023-06-14T17:30:37.608Z,9.61
2023-06-14T17:33:14.953Z,9.54
2023-06-14T17:35:43.554Z,9.66
2023-06-14T17:38:12.577Z,9.70
2023-06-14T17:40:49.890Z,9.75
2023-06-14T17:43:19.592Z,9.79
2023-06-14T17:45:48.085Z,9.77
2023-06-14T17:48:15.640Z,9.69
2023-06-14T17:50:43.401Z,9.67
2023-06-14T17:53:10.763Z,9.60
2023-06-14T17:55:38.775Z,9.52
2023-06-14T17:58:06.851Z,9.37
2023-06-14T18:00:34.913Z,9.28
2023-06-14T18:03:03.489Z,9.30
2023-06-14T18:05:31.234Z,9.20
2023-06-14T18:08:00.084Z,9.22
2023-06-14T18:10:27.735Z,9.17
2023-06-14T18:12:56.217Z,9.13
2023-06-14T18:15:23.711Z,9.04
2023-06-14T18:17:52.150Z,9.01
2023-06-14T18:20:20.231Z,9.15
2023-06-14T18:22:48.919Z,9.09
2023-06-14T18:25:19.556Z,9.05
2023-06-14T18:27:47.263Z,8.97
2023-06-14T18:30:15.885Z,8.96
2023-06-14T18:32:47.542Z,9.01
2023-06-14T18:35:16.793Z,8.99
2023-06-14T18:37:45.627Z,8.96
2023-06-14T18:40:14.248Z,8.91
2023-06-14T18:42:42.920Z,8.99
2023-06-14T18:45:10.842Z,9.01
2023-06-14T18:47:38.757Z,9.06
2023-06-14T18:50:07.148Z,8.93
2023-06-14T18:52:35.210Z,8.85
2023-06-14T18:55:05.714Z,8.80
2023-06-14T18:57:34.044Z,8.78
2023-06-14T19:00:02.091Z,8.81
2023-06-14T19:02:31.306Z,8.76
2023-06-14T19:04:59.917Z,8.77
2023-06-14T19:07:27.277Z,8.78
2023-06-14T19:09:54.855Z,8.76
2023-06-14T19:12:22.302Z,8.73
2023-06-14T19:14:49.511Z,8.72
2023-06-14T19:17:17.835Z,8.64
2023-06-14T19:19:46.183Z,8.66
2023-06-14T19:22:14.723Z,8.57
2023-06-14T19:24:42.293Z,8.62
2023-06-14T19:27:09.457Z,8.55
2023-06-14T19:29:37.155Z,8.49
2023-06-14T19:32:05.835Z,8.47
2023-06-14T19:34:33.406Z,8.51
2023-06-14T19:37:01.094Z,8.46
2023-06-14T19:39:28.641Z,8.44
2023-06-14T19:41:56.445Z,8.39
2023-06-14T19:44:23.664Z,8.41
2023-06-14T19:46:51.310Z,8.37
2023-06-14T19:49:19.221Z,8.34
2023-06-14T19:51:46.451Z,8.34
2023-06-14T19:54:14.012Z,8.35
2023-06-14T19:56:41.596Z,8.35
2023-06-14T19:59:09.103Z,8.27
2023-06-14T20:01:36.469Z,8.22
2023-06-14T20:04:04.432Z,8.24
2023-06-14T20:06:32.114Z,8.31
2023-06-14T20:08:59.985Z,8.38
2023-06-14T20:11:28.409Z,8.31
2023-06-14T20:13:56.035Z,8.29
2023-06-14T20:16:24.101Z,8.38
2023-06-14T20:18:52.086Z,8.37
2023-06-14T20:21:19.425Z,8.33
2023-06-14T20:23:47.195Z,8.32
2023-06-14T20:26:14.994Z,8.27
2023-06-14T20:28:42.490Z,8.33
2023-06-14T20:31:11.628Z,8.33
2023-06-14T20:33:39.399Z,8.31
2023-06-14T20:36:07.220Z,8.25
2023-06-14T20:38:34.443Z,8.19
2023-06-14T20:41:01.820Z,8.15
2023-06-14T20:43:29.710Z,8.20
2023-06-14T20:45:57.987Z,8.11
2023-06-14T20:48:26.422Z,8.08
2023-06-14T20:50:54.015Z,8.01
2023-06-14T20:53:21.891Z,8.00
2023-06-14T20:55:49.319Z,7.99
2023-06-14T20:58:18.140Z,7.97
2023-06-14T21:00:45.711Z,7.95
2023-06-14T21:03:13.669Z,7.99
2023-06-14T21:05:41.741Z,7.94
2023-06-14T21:08:09.012Z,7.92
2023-06-14T21:10:37.141Z,7.90
2023-06-14T21:13:04.649Z,7.97
2023-06-14T21:15:35.499Z,7.96
2023-06-14T21:18:03.287Z,7.96
2023-06-14T21:20:30.768Z,7.95
2023-06-14T21:22:58.252Z,8.00
2023-06-14T21:25:25.584Z,8.06
2023-06-14T21:27:53.005Z,8.05
2023-06-14T21:30:31.584Z,8.01
2023-06-14T21:32:58.860Z,8.07
2023-06-14T21:35:26.411Z,8.15
2023-06-14T21:37:54.902Z,8.20
2023-06-14T21:40:22.090Z,8.21
2023-06-14T21:42:49.565Z,8.27
2023-06-14T21:45:17.376Z,8.34
2023-06-14T21:47:46.629Z,8.32
2023-06-14T21:50:14.449Z,8.40
2023-06-14T21:52:41.788Z,8.47
2023-06-14T21:55:09.635Z,8.46
2023-06-14T21:57:37.210Z,8.48
2023-06-14T22:00:05.690Z,8.55
2023-06-14T22:02:33.911Z,8.62
2023-06-14T22:05:01.422Z,8.61
2023-06-14T22:07:32.092Z,8.73
2023-06-14T22:10:00.448Z,8.90
2023-06-14T22:12:29.412Z,9.55
2023-06-14T22:14:57.009Z,10.27
2023-06-14T22:17:25.134Z,11.04
2023-06-14T22:19:52.864Z,11.88
2023-06-14T22:22:30.320Z,12.70
2023-06-14T22:24:57.993Z,13.44
2023-06-14T22:27:27.236Z,14.02
2023-06-14T22:29:58.146Z,14.51
2023-06-14T22:32:29.773Z,15.03
2023-06-14T22:34:57.781Z,15.45
2023-06-14T22:37:36.732Z,15.92
2023-06-14T22:40:12.184Z,16.35
2023-06-14T22:42:48.896Z,16.85
2023-06-14T22:45:28.680Z,17.29
2023-06-14T22:47:57.598Z,17.81
2023-06-14T22:50:25.385Z,18.41
2023-06-14T22:52:53.582Z,18.92
2023-06-14T22:55:21.330Z,19.27
2023-06-14T22:57:49.981Z,19.67
2023-06-14T23:00:18.462Z,20.17
2023-06-14T23:02:46.941Z,20.57
2023-06-14T23:05:15.070Z,21.38
2023-06-14T23:07:43.550Z,21.90
2023-06-14T23:10:11.693Z,22.44
2023-06-14T23:12:41.776Z,22.82
2023-06-14T23:15:10.200Z,22.91
2023-06-14T23:17:42.910Z,22.92
2023-06-14T23:20:10.976Z,23.08
2023-06-14T23:22:42.333Z,23.39
2023-06-14T23:25:10.710Z,23.51
2023-06-14T23:27:38.558Z,24.10
2023-06-14T23:30:06.825Z,24.48
2023-06-14T23:32:35.031Z,25.43
2023-06-14T23:35:03.662Z,25.70
2023-06-14T23:37:31.696Z,25.78
2023-06-14T23:40:01.615Z,26.64
2023-06-14T23:42:32.530Z,26.93
2023-06-14T23:45:03.595Z,27.60
2023-06-14T23:47:34.433Z,28.32
2023-06-14T23:50:01.952Z,28.97
2023-06-14T23:52:30.877Z,28.98
2023-06-14T23:55:02.956Z,28.85
2023-06-14T23:57:31.950Z,28.95
2023-06-14T23:59:59.849Z,29.09
